Time;durP1;ratioP1;P1;durP2;ratioP2;P2;SDS_P1;SDS_P2;PMS_P1;PMS_P2;Temp;Humidity;BMP_temperature;BMP_pressure;BME280_temperature;BME280_humidity;BME280_pressure;Samples;Min_cycle;Max_cycle;Signal;HPM_P1;HPM_P2
2020/12/05 00:01:13;;;;;;;85.77;45.70;;;;;;;6.48;100.00;95640.94;5070813;28;20286;-65
2020/12/05 00:03:39;;;;;;;96.63;41.40;;;;;;;6.49;100.00;95645.84;5071342;28;20203;-65
2020/12/05 00:06:06;;;;;;;75.20;38.70;;;;;;;6.56;100.00;95648.16;5071217;28;20287;-65
2020/12/05 00:08:34;;;;;;;82.63;41.07;;;;;;;6.51;100.00;95657.72;5071113;28;20193;-65
2020/12/05 00:11:01;;;;;;;98.93;44.93;;;;;;;6.54;100.00;95650.22;5071091;28;20228;-65
2020/12/05 00:13:28;;;;;;;83.17;39.87;;;;;;;6.62;100.00;95646.31;5071312;28;20300;-64
2020/12/05 00:15:55;;;;;;;79.43;38.47;;;;;;;6.62;100.00;95651.50;5071141;28;20214;-65
2020/12/05 00:18:22;;;;;;;77.00;39.93;;;;;;;6.64;100.00;95642.44;5071132;28;20196;-64
2020/12/05 00:20:49;;;;;;;74.83;39.23;;;;;;;6.64;100.00;95647.59;5070991;28;20227;-65
2020/12/05 00:23:16;;;;;;;82.17;38.07;;;;;;;6.62;100.00;95644.53;5070963;28;20187;-64
2020/12/05 00:25:43;;;;;;;78.07;37.67;;;;;;;6.57;100.00;95657.44;5071172;28;20204;-64
2020/12/05 00:28:09;;;;;;;81.93;39.17;;;;;;;6.62;100.00;95660.00;5070568;28;20223;-65
2020/12/05 00:30:37;;;;;;;63.20;32.73;;;;;;;6.63;100.00;95666.69;5070514;28;20203;-65
2020/12/05 00:33:04;;;;;;;63.73;32.63;;;;;;;6.56;100.00;95665.44;5070672;28;20203;-65
2020/12/05 00:35:32;;;;;;;77.80;35.37;;;;;;;6.52;100.00;95670.38;5071010;28;20642;-65
2020/12/05 00:37:59;;;;;;;71.37;36.83;;;;;;;6.57;100.00;95670.34;5070807;28;20200;-65
2020/12/05 00:40:25;;;;;;;68.40;35.97;;;;;;;6.59;100.00;95668.28;5070222;28;20245;-66
2020/12/05 00:42:52;;;;;;;76.83;39.60;;;;;;;6.63;100.00;95664.13;5070489;28;20739;-64
2020/12/05 00:45:19;;;;;;;76.40;40.03;;;;;;;6.58;100.00;95658.19;5070596;28;20203;-65
2020/12/05 00:47:46;;;;;;;78.43;40.87;;;;;;;6.58;100.00;95653.81;5070280;28;20627;-65
2020/12/05 00:50:13;;;;;;;83.90;41.20;;;;;;;6.60;100.00;95662.06;5070323;28;20279;-65
2020/12/05 00:52:41;;;;;;;91.57;42.00;;;;;;;6.55;100.00;95664.66;5070445;28;20230;-61
2020/12/05 00:55:08;;;;;;;71.47;36.63;;;;;;;6.61;100.00;95662.84;5070248;28;20675;-65
2020/12/05 00:57:35;;;;;;;82.80;40.13;;;;;;;6.61;100.00;95658.47;5070568;28;20744;-65
2020/12/05 01:00:02;;;;;;;94.23;41.87;;;;;;;6.56;100.00;95663.63;5070176;28;20196;-65
2020/12/05 01:02:28;;;;;;;79.23;38.17;;;;;;;6.63;100.00;95661.53;5070156;28;20648;-64
2020/12/05 01:04:55;;;;;;;76.17;36.40;;;;;;;6.68;100.00;95663.31;5070202;28;20198;-65
2020/12/05 01:07:25;;;;;;;69.30;36.10;;;;;;;6.69;100.00;95665.66;5070206;28;20196;-64
2020/12/05 01:09:53;;;;;;;69.03;36.40;;;;;;;6.71;100.00;95662.81;5070147;28;20192;-64
2020/12/05 01:12:20;;;;;;;76.47;37.33;;;;;;;6.72;100.00;95669.53;5069783;28;20234;-66
2020/12/05 01:14:47;;;;;;;80.27;41.47;;;;;;;6.69;100.00;95668.22;5070003;28;20705;-65
2020/12/05 01:17:14;;;;;;;67.40;35.13;;;;;;;6.76;100.00;95658.41;5070002;28;20718;-64
2020/12/05 01:19:41;;;;;;;60.33;31.73;;;;;;;6.84;100.00;95657.84;5070347;28;20202;-64
2020/12/05 01:22:08;;;;;;;52.13;28.97;;;;;;;6.89;100.00;95660.41;5070262;28;20647;-65
2020/12/05 01:24:35;;;;;;;51.03;26.63;;;;;;;6.85;100.00;95664.56;5069943;28;20255;-65
2020/12/05 01:27:03;;;;;;;54.50;27.80;;;;;;;6.89;100.00;95669.97;5070168;28;20203;-65
2020/12/05 01:29:29;;;;;;;50.07;27.50;;;;;;;6.87;100.00;95661.72;5069899;28;20213;-64
2020/12/05 01:31:56;;;;;;;49.97;25.37;;;;;;;6.89;100.00;95663.00;5069815;28;20256;-65
2020/12/05 01:34:23;;;;;;;42.43;24.23;;;;;;;7.01;100.00;95656.75;5070138;28;20295;-64
2020/12/05 01:36:50;;;;;;;42.13;24.43;;;;;;;7.04;100.00;95661.38;5069844;28;20246;-65
2020/12/05 01:39:17;;;;;;;45.33;23.17;;;;;;;7.00;100.00;95655.19;5069523;28;20616;-65
2020/12/05 01:41:43;;;;;;;41.47;22.67;;;;;;;7.00;100.00;95662.94;5070458;28;20243;-65
2020/12/05 01:44:11;;;;;;;43.37;23.00;;;;;;;7.01;100.00;95654.94;5069785;28;20192;-65
2020/12/05 01:46:39;;;;;;;44.23;24.93;;;;;;;6.99;100.00;95658.81;5069660;28;20200;-65
2020/12/05 01:49:08;;;;;;;37.77;22.73;;;;;;;6.96;100.00;95667.09;5069657;28;20196;-63
2020/12/05 01:51:36;;;;;;;38.67;22.47;;;;;;;7.00;100.00;95666.31;5069519;28;20718;-64
2020/12/05 01:54:03;;;;;;;39.97;22.27;;;;;;;6.97;100.00;95666.06;5069796;28;20266;-64
2020/12/05 01:56:30;;;;;;;42.03;23.03;;;;;;;7.02;100.00;95668.63;5069663;28;20287;-65
2020/12/05 01:58:57;;;;;;;39.23;22.53;;;;;;;7.03;100.00;95659.81;5069562;28;20258;-62
2020/12/05 02:01:26;;;;;;;38.70;22.53;;;;;;;7.04;100.00;95648.44;5069681;28;20193;-65
2020/12/05 02:07:27;;;;;;;41.87;21.60;;;;;;;7.10;100.00;95660.31;5069669;28;20188;-66
2020/12/05 02:09:57;;;;;;;38.67;21.10;;;;;;;7.10;100.00;95655.13;5069803;28;20804;-66
2020/12/05 02:12:34;;;;;;;42.13;22.07;;;;;;;7.15;100.00;95657.69;5069512;28;20223;-65
2020/12/05 02:15:05;;;;;;;37.77;20.97;;;;;;;7.17;100.00;95656.38;5069782;28;20196;-65
2020/12/05 02:17:37;;;;;;;37.97;21.40;;;;;;;7.19;100.00;95656.13;5069644;28;20228;-65
2020/12/05 02:20:05;;;;;;;38.07;21.00;;;;;;;7.22;100.00;95658.19;5069865;28;21035;-66
2020/12/05 02:22:39;;;;;;;35.63;20.97;;;;;;;7.25;100.00;95647.31;5070154;28;20291;-66
2020/12/05 02:25:07;;;;;;;38.47;22.10;;;;;;;7.24;100.00;95653.50;5073428;28;20273;-66
2020/12/05 02:27:35;;;;;;;41.93;23.17;;;;;;;7.17;100.00;95651.22;5073232;28;20222;-65
2020/12/05 02:30:01;;;;;;;40.63;23.30;;;;;;;7.18;100.00;95651.97;5073258;28;20199;-65
2020/12/05 02:32:28;;;;;;;68.27;31.63;;;;;;;7.19;100.00;95654.31;5073124;28;20299;-65
2020/12/05 02:34:55;;;;;;;61.70;30.03;;;;;;;7.21;100.00;95649.66;5073186;28;20250;-64
2020/12/05 02:37:25;;;;;;;51.20;26.60;;;;;;;7.24;100.00;95656.88;5073078;28;20196;-66
2020/12/05 02:39:52;;;;;;;51.70;27.70;;;;;;;7.24;100.00;95650.94;5073084;28;20224;-65
2020/12/05 02:42:20;;;;;;;42.27;23.73;;;;;;;7.19;100.00;95648.38;5072810;28;20200;-66
2020/12/05 02:44:49;;;;;;;41.17;23.70;;;;;;;7.10;100.00;95643.00;5072701;28;20188;-66
2020/12/05 02:47:16;;;;;;;37.43;23.13;;;;;;;7.11;100.00;95641.19;5072916;28;20207;-66
2020/12/05 02:49:43;;;;;;;46.40;26.90;;;;;;;7.10;100.00;95637.06;5072862;28;20196;-64
2020/12/05 02:52:11;;;;;;;43.67;26.07;;;;;;;7.04;100.00;95646.66;5072605;28;20231;-66
2020/12/05 02:54:38;;;;;;;48.00;25.97;;;;;;;7.03;100.00;95657.22;5072656;28;20202;-66
2020/12/05 02:57:05;;;;;;;39.43;22.37;;;;;;;6.98;100.00;95657.25;5072505;28;20575;-65
2020/12/05 02:59:33;;;;;;;40.50;22.57;;;;;;;7.06;100.00;95661.88;5072272;28;20203;-66
2020/12/05 03:02:00;;;;;;;38.53;22.33;;;;;;;7.04;100.00;95661.38;5072266;28;20675;-66
2020/12/05 03:04:27;;;;;;;45.27;24.67;;;;;;;6.84;100.00;95663.00;5072437;28;20199;-65
2020/12/05 03:06:54;;;;;;;43.77;25.70;;;;;;;6.76;100.00;95663.56;5072397;28;20194;-65
2020/12/05 03:09:21;;;;;;;42.73;26.27;;;;;;;6.73;100.00;95666.66;5072365;28;20196;-66
2020/12/05 03:11:48;;;;;;;44.37;24.70;;;;;;;6.68;100.00;95658.94;5072091;28;20224;-64
2020/12/05 03:14:15;;;;;;;44.43;24.40;;;;;;;6.59;100.00;95659.75;5072844;28;20227;-65
2020/12/05 03:16:43;;;;;;;43.30;25.80;;;;;;;6.57;100.00;95662.63;5072270;28;20204;-64
2020/12/05 03:19:10;;;;;;;46.23;26.20;;;;;;;6.59;100.00;95660.53;5072041;28;20227;-65
2020/12/05 03:21:36;;;;;;;44.93;25.60;;;;;;;6.63;100.00;95660.75;5072078;28;20200;-65
2020/12/05 03:24:03;;;;;;;42.70;24.50;;;;;;;6.53;100.00;95664.16;5072102;28;20197;-65
2020/12/05 03:26:30;;;;;;;43.00;25.27;;;;;;;6.34;100.00;95668.34;5071772;28;20713;-65
2020/12/05 03:28:57;;;;;;;38.00;23.03;;;;;;;6.17;100.00;95665.28;5071737;28;20705;-64
2020/12/05 03:31:36;;;;;;;43.53;24.83;;;;;;;5.94;100.00;95669.16;5072053;28;20228;-65
2020/12/05 03:34:05;;;;;;;42.27;24.67;;;;;;;5.87;100.00;95669.44;5070869;28;20566;-66
2020/12/05 03:36:32;;;;;;;44.67;23.37;;;;;;;5.79;100.00;95672.50;5071847;28;20289;-66
2020/12/05 03:38:59;;;;;;;47.70;24.67;;;;;;;5.76;100.00;95678.19;5071466;28;20220;-65
2020/12/05 03:41:26;;;;;;;42.77;23.97;;;;;;;5.74;100.00;95680.22;5071610;28;20650;-64
2020/12/05 03:43:53;;;;;;;42.53;23.50;;;;;;;5.70;100.00;95689.50;5071652;28;20327;-65
2020/12/05 03:46:20;;;;;;;44.50;24.43;;;;;;;5.73;100.00;95691.56;5071621;28;20192;-63
2020/12/05 03:48:47;;;;;;;50.23;25.57;;;;;;;5.64;100.00;95691.31;5071442;28;20626;-65
2020/12/05 03:51:14;;;;;;;43.90;25.40;;;;;;;5.52;100.00;95693.38;5071260;28;20195;-65
2020/12/05 03:53:41;;;;;;;48.87;27.77;;;;;;;5.54;100.00;95685.38;5071332;28;20192;-66
2020/12/05 03:56:08;;;;;;;51.20;27.87;;;;;;;5.55;100.00;95690.28;5071358;28;20197;-65
2020/12/05 03:58:35;;;;;;;63.50;33.20;;;;;;;5.55;100.00;95686.91;5071249;28;20198;-65
2020/12/05 04:01:02;;;;;;;56.83;32.03;;;;;;;5.49;100.00;95682.78;5071297;28;20193;-65
2020/12/05 04:03:28;;;;;;;61.70;32.10;;;;;;;5.51;100.00;95685.88;5071214;28;20196;-65
2020/12/05 04:05:55;;;;;;;64.30;33.10;;;;;;;5.56;100.00;95685.91;5071255;28;20188;-65
2020/12/05 04:08:23;;;;;;;56.67;30.83;;;;;;;5.50;100.00;95692.06;5070983;28;20252;-65
2020/12/05 04:10:50;;;;;;;59.93;32.20;;;;;;;5.51;100.00;95688.47;5071202;28;20236;-65
2020/12/05 04:13:17;;;;;;;55.97;31.70;;;;;;;5.55;100.00;95689.50;5070907;28;20236;-65
2020/12/05 04:15:43;;;;;;;53.17;30.27;;;;;;;5.58;100.00;95692.31;5071033;28;20205;-65
2020/12/05 04:18:10;;;;;;;55.00;30.03;;;;;;;5.63;100.00;95688.97;5071100;28;20188;-66
2020/12/05 04:20:37;;;;;;;51.50;29.53;;;;;;;5.66;100.00;95698.03;5070977;28;20201;-65
2020/12/05 04:23:07;;;;;;;51.30;29.07;;;;;;;5.69;100.00;95700.84;5071123;28;20204;-65
2020/12/05 04:25:38;;;;;;;53.97;30.17;;;;;;;5.72;100.00;95702.16;5071045;28;20286;-65
2020/12/05 04:28:05;;;;;;;48.33;28.60;;;;;;;5.72;100.00;95697.00;5071061;28;20716;-65
2020/12/05 04:30:32;;;;;;;54.63;30.93;;;;;;;5.64;100.00;95703.41;5071230;28;20205;-65
2020/12/05 04:32:58;;;;;;;53.37;29.27;;;;;;;5.71;100.00;95709.13;5070701;28;20228;-65
2020/12/05 04:35:25;;;;;;;52.60;29.43;;;;;;;5.76;100.00;95698.81;5071062;28;20281;-65
2020/12/05 04:37:52;;;;;;;51.13;29.03;;;;;;;5.68;100.00;95703.69;5071443;28;20727;-65
2020/12/05 04:40:19;;;;;;;50.27;28.80;;;;;;;5.58;100.00;95704.44;5070713;28;20233;-65
2020/12/05 04:42:48;;;;;;;53.97;29.53;;;;;;;5.58;100.00;95702.63;5070782;28;20641;-65
2020/12/05 04:45:16;;;;;;;58.33;32.33;;;;;;;5.61;100.00;95703.94;5071016;28;20194;-64
2020/12/05 04:47:44;;;;;;;59.57;32.90;;;;;;;5.67;100.00;95704.72;5070365;28;20261;-65
2020/12/05 04:50:12;;;;;;;53.20;30.70;;;;;;;5.75;100.00;95702.41;5070593;28;20223;-65
2020/12/05 04:52:48;;;;;;;58.83;32.70;;;;;;;5.81;100.00;95705.75;5070304;28;20235;-65
2020/12/05 04:55:15;;;;;;;62.53;34.17;;;;;;;5.80;100.00;95697.25;5070574;28;20250;-64
2020/12/05 04:57:47;;;;;;;55.57;31.20;;;;;;;5.77;100.00;95700.34;5070379;28;20280;-65
2020/12/05 05:00:16;;;;;;;54.70;29.73;;;;;;;5.75;100.00;95701.63;5070178;28;20192;-66
2020/12/05 05:02:45;;;;;;;50.23;30.63;;;;;;;5.77;100.00;95700.34;5070879;28;20202;-65
2020/12/05 05:05:14;;;;;;;51.30;29.30;;;;;;;5.77;100.00;95705.50;5070630;28;20250;-65
2020/12/05 05:07:48;;;;;;;60.60;31.73;;;;;;;5.78;100.00;95714.78;5070148;28;20215;-66
2020/12/05 05:10:24;;;;;;;67.03;36.83;;;;;;;5.82;100.00;95712.47;5070008;28;20189;-65
2020/12/05 05:13:02;;;;;;;97.53;49.23;;;;;;;6.01;100.00;95716.88;5070546;28;20228;-65
2020/12/05 05:15:30;;;;;;;63.93;34.33;;;;;;;6.20;100.00;95718.94;5070235;28;20203;-65
2020/12/05 05:17:59;;;;;;;73.37;38.73;;;;;;;6.22;100.00;95720.25;5069905;28;20207;-65
2020/12/05 05:20:27;;;;;;;40.60;24.30;;;;;;;5.91;100.00;95729.78;5070015;28;20214;-66
2020/12/05 05:23:13;;;;;;;40.37;22.93;;;;;;;5.85;100.00;95732.56;5069972;28;20190;-65
2020/12/05 05:25:56;;;;;;;38.03;21.63;;;;;;;5.67;100.00;95730.50;5069827;28;20235;-63
2020/12/05 05:28:28;;;;;;;36.17;21.63;;;;;;;5.69;100.00;95731.78;5068809;28;20216;-66
2020/12/05 05:30:57;;;;;;;36.50;22.03;;;;;;;5.69;100.00;95742.09;5070028;28;20224;-65
2020/12/05 05:33:24;;;;;;;38.27;22.93;;;;;;;5.64;100.00;95753.19;5069753;28;20234;-66
2020/12/05 05:35:51;;;;;;;37.57;23.17;;;;;;;5.53;100.00;95746.44;5069911;28;20205;-65
2020/12/05 05:38:24;;;;;;;45.37;26.20;;;;;;;5.51;100.00;95743.38;5069844;28;20207;-65
2020/12/05 05:40:51;;;;;;;52.10;29.40;;;;;;;5.51;100.00;95745.16;5069811;28;20734;-65
2020/12/05 05:43:19;;;;;;;74.50;39.83;;;;;;;5.49;100.00;95744.63;5069618;28;20676;-64
2020/12/05 05:45:47;;;;;;;52.57;29.50;;;;;;;5.59;100.00;95742.06;5070011;28;20376;-65
2020/12/05 05:48:15;;;;;;;45.03;28.53;;;;;;;5.58;100.00;95748.25;5069691;28;20192;-64
2020/12/05 05:50:42;;;;;;;53.77;31.63;;;;;;;5.56;100.00;95745.19;5070077;28;20200;-66
2020/12/05 05:53:10;;;;;;;48.03;30.00;;;;;;;5.60;100.00;95741.84;5069725;28;20224;-66
2020/12/05 05:55:41;;;;;;;48.50;28.93;;;;;;;5.66;100.00;95744.41;5069587;28;20287;-65
2020/12/05 05:58:09;;;;;;;51.43;31.23;;;;;;;5.72;100.00;95743.41;5071182;28;20195;-66
2020/12/05 06:00:37;;;;;;;50.07;29.33;;;;;;;5.74;100.00;95757.56;5073489;28;20192;-66
2020/12/05 06:03:16;;;;;;;51.60;30.63;;;;;;;5.80;100.00;95758.34;5073560;28;20189;-64
2020/12/05 06:05:45;;;;;;;47.43;27.50;;;;;;;5.86;100.00;95752.97;5073696;28;20201;-66
2020/12/05 06:08:18;;;;;;;87.03;48.07;;;;;;;5.80;100.00;95756.56;5073523;28;20196;-65
2020/12/05 06:10:48;;;;;;;77.83;45.03;;;;;;;5.92;100.00;95764.88;5073323;28;20209;-65
2020/12/05 06:13:19;;;;;;;83.43;45.67;;;;;;;6.01;100.00;95760.75;5073144;28;20316;-66
2020/12/05 06:15:47;;;;;;;95.57;53.97;;;;;;;6.10;100.00;95763.56;5073327;28;20197;-64
2020/12/05 06:18:15;;;;;;;67.73;40.03;;;;;;;6.18;100.00;95762.28;5073396;28;20188;-65
2020/12/05 06:20:45;;;;;;;80.00;48.07;;;;;;;6.22;100.00;95763.31;5073266;28;20204;-65
2020/12/05 06:23:22;;;;;;;75.57;46.60;;;;;;;6.28;100.00;95764.84;5073448;28;20624;-66
2020/12/05 06:25:52;;;;;;;82.83;46.87;;;;;;;6.36;100.00;95766.94;5073215;28;20199;-65
2020/12/05 06:28:21;;;;;;;61.40;38.77;;;;;;;6.42;100.00;95773.63;5072977;28;20217;-65
2020/12/05 06:30:49;;;;;;;65.17;39.07;;;;;;;6.51;100.00;95777.25;5073139;28;20193;-66
2020/12/05 06:33:48;;;;;;;99.70;55.10;;;;;;;6.43;100.00;95782.91;5072857;28;20224;-65
2020/12/05 06:36:43;;;;;;;96.50;48.80;;;;;;;6.53;100.00;95785.47;5069601;28;20283;-65
2020/12/05 06:39:17;;;;;;;161.57;69.27;;;;;;;6.61;100.00;95787.56;5048811;28;20228;-66
2020/12/05 06:41:46;;;;;;;99.70;53.37;;;;;;;6.63;100.00;95790.63;5072984;28;20199;-66
2020/12/05 06:44:16;;;;;;;92.97;49.83;;;;;;;6.75;100.00;95790.38;5072905;28;20250;-66
2020/12/05 06:46:57;;;;;;;108.93;58.83;;;;;;;6.78;100.00;95798.34;5072690;28;20200;-66
2020/12/05 06:49:46;;;;;;;111.20;60.97;;;;;;;6.80;100.00;95801.47;5073086;28;20728;-66
2020/12/05 06:52:40;;;;;;;117.67;64.20;;;;;;;6.93;100.00;95800.13;5072706;28;20584;-66
2020/12/05 06:55:16;;;;;;;112.63;59.93;;;;;;;7.00;100.00;95807.63;5073229;28;20196;-64
2020/12/05 06:57:43;;;;;;;96.53;52.70;;;;;;;7.03;100.00;95794.94;5072780;28;20196;-65
2020/12/05 07:00:19;;;;;;;111.63;58.80;;;;;;;6.99;100.00;95799.09;5072700;28;20188;-66
2020/12/05 07:02:54;;;;;;;101.13;57.07;;;;;;;7.01;100.00;95806.59;5072328;28;20272;-66
2020/12/05 07:05:26;;;;;;;132.83;71.57;;;;;;;7.15;100.00;95802.41;5072352;28;20200;-66
2020/12/05 07:07:55;;;;;;;159.07;76.13;;;;;;;7.15;100.00;95810.16;5072513;28;20192;-66
2020/12/05 07:10:47;;;;;;;114.10;56.93;;;;;;;7.16;100.00;95803.97;5071915;28;20689;-66
2020/12/05 07:13:15;;;;;;;92.23;48.27;;;;;;;7.21;100.00;95798.78;5072368;28;20625;-66
2020/12/05 07:15:43;;;;;;;99.07;54.77;;;;;;;7.12;100.00;95808.91;5072022;28;20710;-67
2020/12/05 07:18:10;;;;;;;122.57;69.17;;;;;;;7.23;100.00;95812.19;5072000;28;20283;-66
2020/12/05 07:20:37;;;;;;;110.40;61.43;;;;;;;7.28;100.00;95812.19;5071958;28;20668;-65
2020/12/05 07:23:05;;;;;;;98.43;53.77;;;;;;;7.27;100.00;95819.16;5072058;28;20707;-66
2020/12/05 07:25:32;;;;;;;99.57;53.63;;;;;;;7.34;100.00;95824.06;5071955;28;20578;-65
2020/12/05 07:27:59;;;;;;;92.60;49.80;;;;;;;7.29;100.00;95824.06;5071811;28;20219;-65
2020/12/05 07:30:26;;;;;;;70.67;40.87;;;;;;;7.33;100.00;95825.09;5071778;28;20200;-66
2020/12/05 07:32:53;;;;;;;62.90;37.33;;;;;;;7.46;100.00;95826.34;5071815;28;20315;-66
2020/12/05 07:35:20;;;;;;;66.13;38.87;;;;;;;7.37;100.00;95826.13;5071907;28;20189;-66
2020/12/05 07:37:47;;;;;;;73.07;43.33;;;;;;;7.42;100.00;95833.09;5072108;28;20651;-67
2020/12/05 07:40:26;;;;;;;63.27;36.93;;;;;;;7.44;100.00;95834.34;5071439;28;20715;-66
2020/12/05 07:42:53;;;;;;;71.03;38.00;;;;;;;7.50;100.00;95835.91;5071762;28;20594;-67
2020/12/05 07:45:20;;;;;;;79.67;44.03;;;;;;;7.50;100.00;95833.31;5071772;28;20200;-67
2020/12/05 07:47:48;;;;;;;75.23;44.63;;;;;;;7.58;100.00;95835.34;5071545;28;20744;-65
2020/12/05 07:50:15;;;;;;;74.13;46.13;;;;;;;7.57;100.00;95833.78;5071623;28;20222;-67
2020/12/05 07:52:42;;;;;;;82.20;48.80;;;;;;;7.62;100.00;95838.19;5071452;28;20228;-67
2020/12/05 07:55:10;;;;;;;80.50;47.03;;;;;;;7.58;100.00;95839.72;5071482;28;20698;-67
2020/12/05 07:57:40;;;;;;;77.77;46.07;;;;;;;7.59;100.00;95838.69;5071801;28;20215;-67
2020/12/05 08:00:10;;;;;;;82.63;49.47;;;;;;;7.62;100.00;95844.09;5071680;28;20655;-67
2020/12/05 08:02:54;;;;;;;71.63;44.63;;;;;;;7.65;100.00;95843.59;5071256;28;20713;-66
2020/12/05 08:05:34;;;;;;;111.23;59.13;;;;;;;7.64;100.00;95846.44;5071070;28;20283;-66
2020/12/05 08:08:03;;;;;;;104.27;52.87;;;;;;;7.73;100.00;95848.19;5071130;28;20733;-66
2020/12/05 08:10:32;;;;;;;130.13;65.63;;;;;;;7.74;100.00;95851.56;5071263;28;20228;-66
2020/12/05 08:13:22;;;;;;;114.40;60.80;;;;;;;7.84;100.00;95848.16;5071023;28;20319;-67
2020/12/05 08:15:52;;;;;;;81.60;47.20;;;;;;;7.86;100.00;95856.44;5070942;28;20193;-66
2020/12/05 08:18:21;;;;;;;100.30;54.53;;;;;;;7.88;100.00;95860.28;5070930;28;20573;-67
2020/12/05 08:20:49;;;;;;;88.00;52.70;;;;;;;8.00;100.00;95863.34;5070397;28;20196;-66
2020/12/05 08:23:23;;;;;;;89.53;51.47;;;;;;;8.00;100.00;95859.97;5070809;28;20211;-67
2020/12/05 08:25:53;;;;;;;98.77;50.60;;;;;;;8.05;100.00;95868.50;5070680;28;20195;-66
2020/12/05 08:28:22;;;;;;;95.03;51.57;;;;;;;8.00;100.00;95865.94;5070817;28;20354;-67
2020/12/05 08:30:50;;;;;;;86.53;48.43;;;;;;;8.01;100.00;95874.47;5070524;28;20279;-67
2020/12/05 08:33:17;;;;;;;80.70;45.60;;;;;;;8.19;100.00;95873.84;5070645;28;20232;-67
2020/12/05 08:35:44;;;;;;;69.67;41.63;;;;;;;8.18;100.00;95870.47;5070828;28;20197;-66
2020/12/05 08:38:14;;;;;;;68.60;39.87;;;;;;;8.14;99.53;95868.69;5070533;28;20196;-65
2020/12/05 08:40:42;;;;;;;93.53;51.40;;;;;;;8.16;100.00;95879.56;5070446;28;20239;-67
2020/12/05 08:43:10;;;;;;;70.90;41.50;;;;;;;8.24;99.51;95876.41;5070475;28;20203;-66
2020/12/05 08:45:40;;;;;;;80.33;42.83;;;;;;;8.23;99.78;95872.25;5070620;28;20639;-67
2020/12/05 08:48:18;;;;;;;75.57;39.67;;;;;;;8.35;99.08;95871.97;5070332;28;20280;-66
2020/12/05 08:50:45;;;;;;;66.17;35.10;;;;;;;8.33;99.00;95880.00;5070360;28;20203;-66
2020/12/05 08:53:16;;;;;;;81.77;39.77;;;;;;;8.31;98.63;95873.53;5070113;28;20228;-66
2020/12/05 08:55:48;;;;;;;68.17;38.40;;;;;;;8.40;98.94;95877.88;5070300;28;20204;-67
2020/12/05 08:58:16;;;;;;;60.63;34.13;;;;;;;8.34;97.68;95880.75;5070571;28;20199;-65
2020/12/05 09:00:51;;;;;;;84.43;45.00;;;;;;;8.40;97.79;95880.47;5070332;28;20192;-66
2020/12/05 09:03:19;;;;;;;139.73;74.53;;;;;;;8.46;97.57;95889.75;5070761;28;20297;-66
2020/12/05 09:05:48;;;;;;;73.47;38.73;;;;;;;8.48;97.29;95882.47;5070419;28;20200;-66
2020/12/05 09:08:22;;;;;;;52.97;30.83;;;;;;;8.39;96.44;95880.72;5070106;28;20192;-67
2020/12/05 09:10:50;;;;;;;66.47;38.57;;;;;;;8.48;96.96;95871.34;5070433;28;20199;-66
2020/12/05 09:13:17;;;;;;;61.73;34.87;;;;;;;8.55;96.01;95877.78;5069971;28;20224;-66
2020/12/05 09:15:58;;;;;;;135.20;68.33;;;;;;;8.55;95.87;95877.78;5070159;28;20278;-68
2020/12/05 09:18:26;;;;;;;106.70;52.40;;;;;;;8.70;95.51;95883.88;5070077;28;20287;-67
2020/12/05 09:20:53;;;;;;;93.53;46.43;;;;;;;8.71;95.26;95883.63;5070375;28;20231;-66
2020/12/05 09:23:30;;;;;;;108.10;50.33;;;;;;;8.66;95.03;95873.28;5069917;28;20697;-67
2020/12/05 09:26:02;;;;;;;92.43;46.30;;;;;;;8.48;96.19;95861.75;5070091;28;20279;-67
2020/12/05 09:28:29;;;;;;;60.20;33.07;;;;;;;8.47;96.38;95867.19;5069776;28;20212;-66
2020/12/05 09:30:57;;;;;;;58.03;33.37;;;;;;;8.47;96.16;95859.44;5069847;28;20192;-66
2020/12/05 09:33:24;;;;;;;47.07;25.27;;;;;;;8.40;96.06;95853.81;5073437;28;20228;-66
2020/12/05 09:35:51;;;;;;;74.37;39.17;;;;;;;8.40;97.19;95858.97;5074070;28;20291;-62
2020/12/05 09:38:18;;;;;;;75.90;40.13;;;;;;;8.51;96.38;95856.06;5074242;28;20196;-66
2020/12/05 09:40:45;;;;;;;48.63;26.67;;;;;;;8.68;95.64;95853.06;5074082;28;20233;-66
2020/12/05 09:43:12;;;;;;;60.80;32.67;;;;;;;8.79;95.17;95864.13;5074202;28;20295;-67
2020/12/05 09:45:39;;;;;;;61.27;34.40;;;;;;;8.93;94.73;95860.63;5073780;28;20196;-68
2020/12/05 09:48:07;;;;;;;54.17;29.53;;;;;;;8.97;94.31;95858.25;5073846;28;20625;-66
2020/12/05 09:50:34;;;;;;;50.87;30.77;;;;;;;9.06;94.95;95854.03;5073792;28;20307;-66
2020/12/05 09:53:01;;;;;;;60.17;34.87;;;;;;;9.12;95.62;95855.50;5073595;28;20744;-67
2020/12/05 09:55:29;;;;;;;49.87;31.27;;;;;;;9.30;94.72;95848.84;5073594;28;20209;-67
2020/12/05 09:57:56;;;;;;;44.37;24.97;;;;;;;9.52;93.42;95855.06;5073660;28;20188;-67
2020/12/05 10:00:23;;;;;;;47.60;26.50;;;;;;;9.76;92.24;95851.69;5073587;28;20192;-68
2020/12/05 10:02:50;;;;;;;40.40;24.40;;;;;;;9.87;90.50;95853.09;5073575;28;20192;-67
2020/12/05 10:05:18;;;;;;;50.03;26.57;;;;;;;10.04;90.28;95850.81;5073678;28;20210;-67
2020/12/05 10:07:44;;;;;;;40.20;26.10;;;;;;;9.86;90.25;95848.97;5073409;28;20197;-67
2020/12/05 10:10:11;;;;;;;41.37;25.20;;;;;;;9.92;90.70;95843.44;5073289;28;20319;-67
2020/12/05 10:12:44;;;;;;;50.00;30.80;;;;;;;10.01;90.24;95843.59;5073083;28;20234;-66
2020/12/05 10:15:12;;;;;;;52.17;31.47;;;;;;;10.08;89.57;95851.00;5073612;28;20271;-68
2020/12/05 10:17:39;;;;;;;70.60;39.47;;;;;;;9.85;90.04;95857.81;5073239;28;20671;-68
2020/12/05 10:20:06;;;;;;;40.87;25.40;;;;;;;9.87;89.88;95855.69;5073382;28;20200;-68
2020/12/05 10:22:34;;;;;;;59.27;33.47;;;;;;;9.92;90.77;95859.00;5073221;28;20243;-68
2020/12/05 10:25:01;;;;;;;55.67;33.43;;;;;;;10.03;89.83;95862.25;5073005;28;20200;-68
2020/12/05 10:27:28;;;;;;;38.03;25.03;;;;;;;9.98;90.83;95856.34;5072984;28;20200;-67
2020/12/05 10:29:55;;;;;;;34.67;23.33;;;;;;;9.90;90.35;95857.75;5072947;28;20196;-68
2020/12/05 10:32:22;;;;;;;40.50;25.67;;;;;;;10.03;90.08;95846.66;5072916;28;20223;-67
2020/12/05 10:34:48;;;;;;;37.43;24.00;;;;;;;10.22;89.45;95847.47;5072907;28;20223;-69
2020/12/05 10:37:15;;;;;;;42.73;26.10;;;;;;;10.36;88.58;95843.09;5072884;28;20197;-68
2020/12/05 10:39:43;;;;;;;33.63;22.10;;;;;;;10.26;88.51;95845.09;5072514;28;20611;-67
2020/12/05 10:42:10;;;;;;;31.60;21.63;;;;;;;10.16;89.97;95843.38;5072755;28;20607;-68
2020/12/05 10:44:36;;;;;;;31.73;20.27;;;;;;;10.37;89.56;95838.66;5071977;28;20188;-67
2020/12/05 10:47:03;;;;;;;36.07;22.50;;;;;;;10.29;88.79;95834.91;5072610;28;20196;-68
2020/12/05 10:49:30;;;;;;;32.97;20.77;;;;;;;10.35;88.92;95841.56;5072628;28;20192;-67
2020/12/05 10:51:57;;;;;;;28.33;18.53;;;;;;;10.50;88.93;95839.78;5072532;28;20189;-68
2020/12/05 10:54:24;;;;;;;24.77;18.00;;;;;;;10.59;88.07;95830.28;5072671;28;20209;-68
2020/12/05 10:56:52;;;;;;;36.03;23.87;;;;;;;10.54;87.67;95838.94;5072756;28;20751;-67
2020/12/05 10:59:19;;;;;;;33.53;21.23;;;;;;;10.58;88.59;95842.50;5072374;28;20657;-67
2020/12/05 11:01:48;;;;;;;35.10;22.40;;;;;;;10.53;87.76;95839.22;5072609;28;20204;-67
2020/12/05 11:04:15;;;;;;;33.90;22.27;;;;;;;10.64;87.77;95840.59;5072487;28;20199;-65
2020/12/05 11:06:42;;;;;;;34.60;22.43;;;;;;;10.75;87.62;95844.59;5072318;28;20686;-68
2020/12/05 11:09:08;;;;;;;48.63;27.90;;;;;;;10.81;85.84;95838.22;5072263;28;20200;-67
2020/12/05 11:11:35;;;;;;;31.97;22.00;;;;;;;10.77;86.86;95845.06;5072258;28;20291;-68
2020/12/05 11:14:03;;;;;;;29.10;19.80;;;;;;;10.98;85.73;95840.28;5072161;28;20307;-68
2020/12/05 11:16:30;;;;;;;63.83;37.23;;;;;;;11.14;85.74;95838.97;5072295;28;20249;-66
2020/12/05 11:18:57;;;;;;;99.23;56.87;;;;;;;11.20;84.83;95837.84;5072045;28;20287;-68
2020/12/05 11:21:24;;;;;;;105.03;50.73;;;;;;;11.36;84.46;95838.28;5072221;28;20201;-67
2020/12/05 11:23:50;;;;;;;196.47;96.10;;;;;;;11.44;83.70;95838.41;5072068;28;20279;-69
2020/12/05 11:26:21;;;;;;;54.93;30.27;;;;;;;11.50;84.81;95836.50;5072113;28;20188;-67
2020/12/05 11:28:49;;;;;;;71.00;37.83;;;;;;;11.31;83.50;95831.34;5071749;28;20812;-68